An Jin Shan — BRQH — position and weather

sailwx.info

Track history (hours):
 
Tides and Currents Weather Stations Pressure Air Temp Water Temp Dewpoint Dewpoint Depression Visibility Wind Speed Wind Dir Waves Ship Positions

An Jin Shan

Last reported at 2018-Feb-23 17:35 UTC. Time now 2018-Feb-24 22:10 UTC.
Position N 31°41' E 121°09'.

Length 199 m; draft 6.2 m.

Type: Cargo ship. MMSI: 413189000.

Date/timePositionNaut miles runAvg speedWind from/ knotsBaromVisibWave heightAir tempDewpointWater temp
2018-Feb-23 17:35N 31°41' E 121°09'0 3.9
2018-Feb-23 17:29N 31°41' E 121°10'4 7.6
2018-Feb-23 16:59N 31°39' E 121°13'5 9.5
2018-Feb-23 16:29N 31°36' E 121°17'4 9.4
2018-Feb-23 16:00N 31°32' E 121°21'4 8.6
2018-Feb-23 15:30N 31°30' E 121°25'3 5.2
2018-Feb-23 14:59N 31°28' E 121°27'5 8.1
2018-Feb-23 14:25N 31°25' E 121°31'13 8.7
2018-Feb-23 12:53N 31°19' E 121°45'3 8.4
2018-Feb-23 12:28N 31°17' E 121°49'  
2018-Feb-18 15:29N 37°56' E 122°02'1910.6
2018-Feb-18 13:43N 38°07' E 121°42'  
Track history (hours):
 
Tides and Currents Weather Stations Pressure Air Temp Water Temp Dewpoint Dewpoint Depression Visibility Wind Speed Wind Dir Waves Ship Positions

An Jin Shan

Last reported at 2018-Feb-23 17:35 UTC. Time now 2018-Feb-24 22:10 UTC.
Position N 31°41' E 121°09'.

Length 199 m; draft 6.2 m.

Type: Cargo ship. MMSI: 413189000.

Date/timePositionNaut miles runAvg speedWind from/ knotsBaromVisibWave heightAir tempDewpointWater temp
2018-Feb-23 17:35N 31°41' E 121°09'0 3.9
2018-Feb-23 17:29N 31°41' E 121°10'4 7.6
2018-Feb-23 16:59N 31°39' E 121°13'5 9.5
2018-Feb-23 16:29N 31°36' E 121°17'4 9.4
2018-Feb-23 16:00N 31°32' E 121°21'4 8.6
2018-Feb-23 15:30N 31°30' E 121°25'3 5.2
2018-Feb-23 14:59N 31°28' E 121°27'5 8.1
2018-Feb-23 14:25N 31°25' E 121°31'13 8.7
2018-Feb-23 12:53N 31°19' E 121°45'3 8.4
2018-Feb-23 12:28N 31°17' E 121°49'  
2018-Feb-18 15:29N 37°56' E 122°02'1910.6
2018-Feb-18 13:43N 38°07' E 121°42'  

Dump ship's entire track history